^^
Your Local Weather - Clay, NY Station Historical Data
Daily Summary for March 17, 2017 Units:  Metric    English   Both
« Previous Day
Next Day »
Daily Weekly Monthly Yearly Custom
  High: Low: Average:
Temperature: 4.9 °C -7.2 °C -1.7 °C
Dew Point: -6.2 °C -13.4 °C -9.9 °C
Humidity: 78% 27% 56%
Wind Speed: 8km/h 0km/h 2.3km/h
Wind Gust: 14.5km/h - -
Wind- - WNW
Pressure: 1024.3 hPa 1019.5 hPa -
Precipitation: 6.1 mm    
Historical Graphs
 
 
Tabular Data for March 17, 2017
Time Temperature Dew Point Pressure Wind Wind Speed Wind Gust Humidity Rainfall Rate (Hourly) solar
00:04 -2.8 °C -8.9 °C 1019.5 hPa WNW 3.2 km/h 4.8 km/h 63% 0 mm 0 W/m2
00:10 -2.9 °C -8.9 °C 1019.5 hPa NNW 3.2 km/h 3.2 km/h 63% 0 mm 0 W/m2
00:16 -2.9 °C -9 °C 1019.5 hPa WNW 3.2 km/h 3.2 km/h 63% 0 mm 0 W/m2
00:22 -2.9 °C -8.8 °C 1019.5 hPa WNW 3.2 km/h 3.2 km/h 64% 0 mm 0 W/m2
00:28 -2.9 °C -8.9 °C 1019.5 hPa WNW 3.2 km/h 3.2 km/h 63% 0 mm 0 W/m2
00:34 -2.9 °C -8.8 °C 1019.5 hPa NW 3.2 km/h 4.8 km/h 64% 0 mm 0 W/m2
00:40 -2.8 °C -8.7 °C 1019.5 hPa NW 4.8 km/h 4.8 km/h 64% 0 mm 0 W/m2
00:46 -2.9 °C -8.8 °C 1019.5 hPa NW 3.2 km/h 4.8 km/h 64% 0 mm 0 W/m2
00:52 -3 °C -8.8 °C 1019.5 hPa NW 3.2 km/h 3.2 km/h 64% 0 mm 0 W/m2
00:58 -3.1 °C -8.9 °C 1019.9 hPa NW 3.2 km/h 4.8 km/h 64% 0 mm 0 W/m2
01:04 -3 °C -8.8 °C 1019.9 hPa NW 3.2 km/h 3.2 km/h 64% 0 mm 0 W/m2
01:10 -3 °C -8.8 °C 1019.9 hPa WNW 3.2 km/h 3.2 km/h 64% 0 mm 0 W/m2
01:16 -3.1 °C -8.9 °C 1019.9 hPa WNW 1.6 km/h 3.2 km/h 64% 0 mm 0 W/m2
01:22 -3.2 °C -8.9 °C 1020.2 hPa WNW 1.6 km/h 1.6 km/h 65% 0 mm 0 W/m2
01:28 -3.3 °C -8.9 °C 1020.2 hPa WNW 1.6 km/h 6.4 km/h 65% 0 mm 0 W/m2
01:34 -3.3 °C -9 °C 1020.2 hPa NW 1.6 km/h 3.2 km/h 65% 0 mm 0 W/m2
01:40 -3.5 °C -9.1 °C 1020.2 hPa NW 1.6 km/h 1.6 km/h 65% 0 mm 0 W/m2
01:46 -3.6 °C -9.1 °C 1020.2 hPa NW 1.6 km/h 1.6 km/h 66% 0 mm 0 W/m2
01:52 -3.7 °C -9.1 °C 1020.2 hPa Calm   1.6 km/h 66% 0 mm 0 W/m2
01:58 -3.7 °C -8.9 °C 1020.2 hPa NW 1.6 km/h 3.2 km/h 67% 0 mm 0 W/m2
02:04 -3.8 °C -9.2 °C 1020.2 hPa NW 1.6 km/h 3.2 km/h 66% 0 mm 0 W/m2
02:10 -3.8 °C -9.1 °C 1020.2 hPa NW 1.6 km/h 4.8 km/h 67% 0 mm 0 W/m2
02:16 -3.8 °C -9.1 °C 1020.2 hPa Calm   4.8 km/h 67% 0 mm 0 W/m2
02:22 -4 °C -9.2 °C 1020.5 hPa Calm   3.2 km/h 67% 0 mm 0 W/m2
02:28 -4.2 °C -9.4 °C 1020.5 hPa Calm   3.2 km/h 67% 0 mm 0 W/m2
02:34 -4.3 °C -9.3 °C 1020.5 hPa Calm     68% 0 mm 0 W/m2
02:40 -4.7 °C -9.5 °C 1020.5 hPa Calm     69% 0 mm 0 W/m2
02:46 -4.8 °C -9.4 °C 1020.5 hPa Calm     70% 0 mm 0 W/m2
02:52 -5.1 °C -9.9 °C 1020.5 hPa Calm     69% 0 mm 0 W/m2
02:58 -5.4 °C -9.8 °C 1020.5 hPa Calm     71% 0 mm 0 W/m2
03:04 -5.4 °C -9.9 °C 1020.5 hPa Calm     71% 0 mm 0 W/m2
03:10 -5.6 °C -9.8 °C 1020.5 hPa Calm     72% 0 mm 0 W/m2
03:16 -5.8 °C -10.1 °C 1020.5 hPa Calm     72% 0 mm 0 W/m2
03:22 -5.9 °C -9.9 °C 1020.5 hPa Calm     73% 0 mm 0 W/m2
03:28 -5.6 °C -9.7 °C 1020.5 hPa West 1.6 km/h 4.8 km/h 73% 0 mm 0 W/m2
03:34 -5.4 °C -9.9 °C 1020.5 hPa West 1.6 km/h 1.6 km/h 71% 0 mm 0 W/m2
03:40 -5.3 °C -9.8 °C 1020.5 hPa Calm     71% 0 mm 0 W/m2
03:42 -5.3 °C -9.9 °C 1020.5 hPa West 1.6 km/h 3.2 km/h 70% 0 mm 0 W/m2
03:48 -5.2 °C -9.9 °C 1020.5 hPa West 1.6 km/h 6.4 km/h 69% 0 mm 0 W/m2
03:54 -5.2 °C -9.9 °C 1020.5 hPa West 1.6 km/h 4.8 km/h 69% 0 mm 0 W/m2
04:00 -5.2 °C -9.9 °C 1020.5 hPa West 1.6 km/h 1.6 km/h 69% 0 mm 0 W/m2
04:06 -5.1 °C -9.9 °C 1020.5 hPa West 1.6 km/h 4.8 km/h 69% 0 mm 0 W/m2
04:12 -5 °C -9.8 °C 1020.5 hPa WSW 3.2 km/h 3.2 km/h 69% 0 mm 0 W/m2
04:18 -5 °C -10 °C 1020.5 hPa West 3.2 km/h 4.8 km/h 68% 0 mm 0 W/m2
04:24 -5.1 °C -9.9 °C 1020.5 hPa WSW 1.6 km/h 4.8 km/h 69% 0 mm 0 W/m2
04:30 -5.2 °C -9.9 °C 1020.9 hPa West 1.6 km/h 8 km/h 69% 0 mm 0 W/m2
04:36 -5.2 °C -9.8 °C 1020.9 hPa WSW 1.6 km/h 8 km/h 70% 0 mm 0 W/m2
04:42 -5.2 °C -9.8 °C 1021.2 hPa WSW 1.6 km/h 6.4 km/h 70% 0 mm 0 W/m2
04:48 -5.1 °C -9.7 °C 1021.2 hPa WSW 3.2 km/h 6.4 km/h 70% 0 mm 0 W/m2
04:54 -4.9 °C -9.6 °C 1021.2 hPa West 3.2 km/h 3.2 km/h 70% 0 mm 0 W/m2
05:00 -4.8 °C -9.4 °C 1021.2 hPa WSW 3.2 km/h 3.2 km/h 70% 0 mm 0 W/m2
05:06 -4.6 °C -9.4 °C 1021.2 hPa WSW 3.2 km/h 8 km/h 69% 0 mm 0 W/m2
05:12 -4.6 °C -9.6 °C 1021.2 hPa West 1.6 km/h 3.2 km/h 68% 0 mm 0 W/m2
05:18 -4.7 °C -9.5 °C 1021.2 hPa WSW 1.6 km/h 3.2 km/h 69% 0 mm 0 W/m2
05:24 -4.7 °C -9.6 °C 1021.2 hPa WSW 1.6 km/h 6.4 km/h 69% 0 mm 0 W/m2
05:30 -4.8 °C -9.6 °C 1021.6 hPa WSW 1.6 km/h 1.6 km/h 69% 0 mm 0 W/m2
05:36 -4.9 °C -9.5 °C 1021.6 hPa West 1.6 km/h 4.8 km/h 70% 0 mm 0 W/m2
05:42 -5.1 °C -9.7 °C 1021.6 hPa Calm   1.6 km/h 70% 0 mm 0 W/m2
05:48 -5.1 °C -9.6 °C 1021.6 hPa West 1.6 km/h 4.8 km/h 71% 0 mm 0 W/m2
05:54 -5.1 °C -9.5 °C 1021.6 hPa West 1.6 km/h 4.8 km/h 71% 0 mm 0 W/m2
06:00 -5.2 °C -9.6 °C 1021.6 hPa West 1.6 km/h 1.6 km/h 71% 0 mm 0 W/m2
06:06 -5.2 °C -9.5 °C 1021.9 hPa WSW 1.6 km/h 4.8 km/h 72% 0 mm 0 W/m2
06:12 -5.2 °C -9.5 °C 1021.9 hPa WSW 1.6 km/h 1.6 km/h 72% 0 mm 0 W/m2
06:18 -5.3 °C -9.6 °C 1021.9 hPa Calm   4.8 km/h 72% 0 mm 0 W/m2
06:24 -5.4 °C -9.7 °C 1021.9 hPa Calm   3.2 km/h 72% 0 mm 0 W/m2
06:30 -5.6 °C -9.6 °C 1022.2 hPa Calm     73% 0 mm 0 W/m2
06:36 -5.7 °C -9.7 °C 1022.2 hPa WSW 1.6 km/h 4.8 km/h 73% 0 mm 0 W/m2
06:42 -5.8 °C -9.9 °C 1022.2 hPa Calm     73% 0 mm 0 W/m2
06:48 -6.1 °C -10.2 °C 1022.2 hPa Calm     73% 0 mm 0 W/m2
06:54 -6.4 °C -10.3 °C 1022.2 hPa Calm     74% 0 mm 0 W/m2
07:00 -6.7 °C -10.6 °C 1022.2 hPa Calm     74% 0 mm 0 W/m2
07:06 -7 °C -10.7 °C 1022.2 hPa Calm     75% 0 mm 0 W/m2
07:12 -7.2 °C -10.7 °C 1022.6 hPa Calm   1.6 km/h 76% 0 mm 0 W/m2
07:18 -7.2 °C -10.5 °C 1022.6 hPa Calm   1.6 km/h 77% 0 mm 5 W/m2
07:24 -7.2 °C -10.5 °C 1022.6 hPa Calm   1.6 km/h 77% 0 mm 7 W/m2
07:30 -7.1 °C -10.3 °C 1022.6 hPa Calm     78% 0 mm 9 W/m2
07:32 -7.1 °C -10.3 °C 1022.6 hPa Calm   1.6 km/h 78% 0 mm 9 W/m2
07:38 -6.9 °C -10.1 °C 1022.6 hPa Calm   1.6 km/h 78% 0 mm 11 W/m2
07:44 -6.8 °C -10 °C 1022.9 hPa WSW 1.6 km/h 3.2 km/h 78% 0 mm 14 W/m2
07:50 -6.7 °C -9.9 °C 1022.9 hPa WSW 1.6 km/h 1.6 km/h 78% 0 mm 25 W/m2
07:56 -6.5 °C -9.7 °C 1022.9 hPa WSW 1.6 km/h 1.6 km/h 78% 0 mm 47 W/m2
08:02 -6.4 °C -9.6 °C 1023.2 hPa West 1.6 km/h 1.6 km/h 78% 0 mm 42 W/m2
08:08 -6.1 °C -9.5 °C 1023.2 hPa West 1.6 km/h 1.6 km/h 77% 0 mm 69 W/m2
08:14 -5.8 °C -9.2 °C 1023.2 hPa West 1.6 km/h 8 km/h 77% 0 mm 93 W/m2
08:20 -5.6 °C -9.2 °C 1023.2 hPa SW 1.6 km/h 1.6 km/h 76% 0 mm 90 W/m2
08:26 -5.2 °C -8.9 °C 1023.6 hPa West 3.2 km/h 4.8 km/h 75% 0 mm 109 W/m2
08:32 -4.9 °C -8.9 °C 1023.6 hPa West 1.6 km/h 3.2 km/h 74% 0 mm 179 W/m2
08:38 -4.7 °C -8.7 °C 1023.6 hPa West 3.2 km/h 4.8 km/h 74% 0 mm 105 W/m2
08:44 -4.4 °C -8.6 °C 1023.6 hPa West 3.2 km/h 3.2 km/h 73% 0 mm 76 W/m2
08:50 -4.2 °C -8.3 °C 1023.6 hPa West 1.6 km/h 3.2 km/h 73% 0 mm 218 W/m2
08:56 -3.9 °C -8 °C 1023.6 hPa WSW 1.6 km/h 6.4 km/h 73% 0 mm 199 W/m2
09:02 -3.6 °C -7.9 °C 1023.9 hPa WSW 3.2 km/h 3.2 km/h 72% 0 mm 132 W/m2
09:08 -3.3 °C -7.7 °C 1023.9 hPa WSW 1.6 km/h 4.8 km/h 72% 0 mm 230 W/m2
09:14 -3.1 °C -7.6 °C 1023.9 hPa WSW 1.6 km/h 6.4 km/h 71% 0 mm 207 W/m2
09:20 -2.8 °C -7.6 °C 1023.9 hPa WSW 1.6 km/h 3.2 km/h 70% 0 mm 178 W/m2
09:26 -2.4 °C -7.2 °C 1023.9 hPa WSW 1.6 km/h 3.2 km/h 70% 0 mm 250 W/m2
09:32 -2.2 °C -7.2 °C 1023.9 hPa WSW 1.6 km/h 1.6 km/h 69% 0 mm 243 W/m2
09:38 -1.8 °C -7.1 °C 1023.9 hPa WNW 1.6 km/h 4.8 km/h 67% 0 mm 311 W/m2
09:44 -1.4 °C -6.9 °C 1023.9 hPa NW 3.2 km/h 4.8 km/h 66% 0 mm 309 W/m2
09:50 -1.1 °C -6.8 °C 1023.9 hPa NW 1.6 km/h 1.6 km/h 65% 0 mm 462 W/m2
09:56 -0.4 °C -6.6 °C 1023.9 hPa NW 1.6 km/h 1.6 km/h 63% 0 mm 483 W/m2
10:02 -0.1 °C -6.3 °C 1023.9 hPa WNW 1.6 km/h 1.6 km/h 63% 0 mm 499 W/m2
10:08 0.1 °C -6.4 °C 1024.3 hPa WNW 1.6 km/h 1.6 km/h 62% 0 mm 519 W/m2
10:14 0.1 °C -6.3 °C 1024.3 hPa NW 1.6 km/h 3.2 km/h 62% 0 mm 533 W/m2
10:20 -0.3 °C -6.9 °C 1024.3 hPa WNW 3.2 km/h 3.2 km/h 61% 0 mm 550 W/m2
10:26 0.1 °C -6.6 °C 1024.3 hPa WNW 3.2 km/h 6.4 km/h 61% 1.52 mm 563 W/m2
10:32 -0.2 °C -6.6 °C 1023.9 hPa WSW 3.2 km/h 6.4 km/h 62% 1.52 mm 584 W/m2
10:38 0 °C -6.4 °C 1024.3 hPa West 3.2 km/h 6.4 km/h 62% 1.02 mm 598 W/m2
10:44 0.6 °C -6.6 °C 1024.3 hPa WNW 3.2 km/h 4.8 km/h 59% 1.02 mm 608 W/m2
10:50 0.9 °C -6.4 °C 1023.9 hPa WNW 1.6 km/h 4.8 km/h 58% 1.78 mm 628 W/m2
10:56 0.7 °C -6.4 °C 1023.9 hPa WSW 1.6 km/h 4.8 km/h 59% 1.27 mm 638 W/m2
11:02 0.9 °C -6.2 °C 1024.3 hPa West 3.2 km/h 6.4 km/h 59% 1.27 mm 652 W/m2
11:08 0.7 °C -6.4 °C 1024.3 hPa WSW 3.2 km/h 6.4 km/h 59% 1.27 mm 664 W/m2
11:14 1.2 °C -6.4 °C 1024.3 hPa West 3.2 km/h 3.2 km/h 57% 1.27 mm 671 W/m2
11:20 1.4 °C -6.2 °C 1024.3 hPa WSW 1.6 km/h 1.6 km/h 57% 1.27 mm 693 W/m2
11:26 1.8 °C -6.6 °C 1023.9 hPa NNW 1.6 km/h 4.8 km/h 54% 4.06 mm 703 W/m2
11:32 1.8 °C -7 °C 1023.9 hPa WNW 4.8 km/h 9.7 km/h 52% 2.29 mm 712 W/m2
11:38 1.8 °C -7.3 °C 1023.9 hPa NW 4.8 km/h 9.7 km/h 51% 3.05 mm 724 W/m2
11:44 1.7 °C -7.6 °C 1023.9 hPa WNW 4.8 km/h 8 km/h 50% 2.29 mm 729 W/m2
11:50 1.6 °C -7.4 °C 1023.6 hPa West 4.8 km/h 6.4 km/h 51% 1.78 mm 737 W/m2
11:56 1.7 °C -7.3 °C 1023.6 hPa WNW 4.8 km/h 6.4 km/h 51% 2.54 mm 744 W/m2
12:02 2 °C -7.1 °C 1023.6 hPa West 3.2 km/h 6.4 km/h 51% 1.78 mm 752 W/m2
12:08 2.3 °C -8.4 °C 1023.6 hPa West 4.8 km/h 8 km/h 45% 2.54 mm 761 W/m2
12:14 2.8 °C -8.9 °C 1023.6 hPa NW 4.8 km/h 8 km/h 42% 2.03 mm 765 W/m2
12:20 2.8 °C -8.6 °C 1023.6 hPa NNW 3.2 km/h 4.8 km/h 43% 1.52 mm 770 W/m2
12:26 2.8 °C -8.2 °C 1023.6 hPa WNW 4.8 km/h 9.7 km/h 44% 1.78 mm 777 W/m2
12:32 2.3 °C -9 °C 1023.6 hPa WNW 6.4 km/h 9.7 km/h 43% 1.78 mm 779 W/m2
12:38 2.4 °C -9.2 °C 1023.6 hPa WNW 6.4 km/h 9.7 km/h 42% 1.52 mm 782 W/m2
12:44 2.6 °C -8.8 °C 1023.6 hPa West 4.8 km/h 11.3 km/h 43% 1.52 mm 784 W/m2
12:50 2.9 °C -8.7 °C 1023.6 hPa NW 4.8 km/h 4.8 km/h 42% 1.78 mm 788 W/m2
12:56 2.7 °C -8.6 °C 1023.6 hPa NW 4.8 km/h 8 km/h 43% 1.27 mm 791 W/m2
13:02 2.6 °C -9.7 °C 1023.6 hPa West 6.4 km/h 8 km/h 40% 1.02 mm 793 W/m2
13:08 2.9 °C -9.4 °C 1023.6 hPa WNW 6.4 km/h 9.7 km/h 40% 1.02 mm 793 W/m2
13:14 2.7 °C -9.9 °C 1023.2 hPa WNW 6.4 km/h 12.9 km/h 39% 1.52 mm 795 W/m2
13:20 2.7 °C -10.3 °C 1023.2 hPa WNW 8 km/h 8 km/h 38% 1.52 mm 795 W/m2
13:26 2.6 °C -11 °C 1023.2 hPa NW 8 km/h 12.9 km/h 36% 1.02 mm 793 W/m2
13:32 2.9 °C -10 °C 1023.2 hPa NNW 6.4 km/h 6.4 km/h 38% 0 mm 791 W/m2
13:38 3 °C -10.7 °C 1023.2 hPa WNW 6.4 km/h 8 km/h 36% 0 mm 786 W/m2
13:44 3 °C -11 °C 1022.9 hPa NNW 6.4 km/h 11.3 km/h 35% 0 mm 782 W/m2
13:50 3.1 °C -10.2 °C 1022.9 hPa WNW 6.4 km/h 9.7 km/h 37% 1.27 mm 780 W/m2
13:56 3.1 °C -10.2 °C 1022.9 hPa NNW 6.4 km/h 9.7 km/h 37% 1.27 mm 777 W/m2
14:02 3.4 °C -10.2 °C 1022.6 hPa NNW 6.4 km/h 8 km/h 36% 0 mm 772 W/m2
14:08 3.6 °C -10.1 °C 1022.6 hPa West 4.8 km/h 8 km/h 36% 0 mm 768 W/m2
14:14 3.4 °C -10.6 °C 1022.6 hPa WNW 4.8 km/h 4.8 km/h 35% 0 mm 765 W/m2
14:20 3.6 °C -10.9 °C 1022.6 hPa WNW 4.8 km/h 4.8 km/h 34% 0 mm 758 W/m2
14:26 3.5 °C -10.9 °C 1022.6 hPa WNW 6.4 km/h 6.4 km/h 34% 0 mm 751 W/m2
14:32 3.4 °C -9.9 °C 1022.6 hPa NW 4.8 km/h 4.8 km/h 37% 0 mm 740 W/m2
14:38 3.7 °C -10.7 °C 1022.2 hPa NNW 4.8 km/h 9.7 km/h 34% 0 mm 733 W/m2
14:44 4 °C -10.5 °C 1022.2 hPa WNW 4.8 km/h 6.4 km/h 34% 0 mm 724 W/m2
14:50 4.1 °C -10.4 °C 1022.2 hPa WNW 4.8 km/h 4.8 km/h 34% 0 mm 717 W/m2
14:56 4.1 °C -10.4 °C 1022.2 hPa NW 4.8 km/h 4.8 km/h 34% 0 mm 707 W/m2
15:02 3.8 °C -10.3 °C 1022.2 hPa WNW 6.4 km/h 6.4 km/h 35% 0 mm 696 W/m2
15:08 3.9 °C -10.2 °C 1021.9 hPa NNW 4.8 km/h 9.7 km/h 35% 0 mm 686 W/m2
15:14 4 °C -10.1 °C 1021.9 hPa WNW 4.8 km/h 4.8 km/h 35% 0 mm 677 W/m2
15:20 4.2 °C -9.9 °C 1021.9 hPa WNW 4.8 km/h 6.4 km/h 35% 0 mm 663 W/m2
15:26 4.2 °C -9.6 °C 1021.9 hPa SSW 4.8 km/h 8 km/h 36% 0 mm 649 W/m2
15:32 4.6 °C -9.6 °C 1021.9 hPa NW 3.2 km/h 4.8 km/h 35% 0 mm 638 W/m2
15:38 4.1 °C -9.3 °C 1021.9 hPa West 4.8 km/h 14.5 km/h 37% 0 mm 622 W/m2
15:46 4.1 °C -10.1 °C 1021.9 hPa WSW 6.4 km/h 8 km/h 35% 0 mm 608 W/m2
15:52 3.9 °C -10.9 °C 1021.9 hPa WSW 8 km/h 8 km/h 33% 0 mm 591 W/m2
15:58 3.9 °C -10.5 °C 1021.9 hPa SW 8 km/h 11.3 km/h 34% 0 mm 580 W/m2
16:04 3.9 °C -10.9 °C 1021.9 hPa West 6.4 km/h 11.3 km/h 33% 0 mm 564 W/m2
16:10 4 °C -10.5 °C 1021.9 hPa SSW 6.4 km/h 8 km/h 34% 0 mm 548 W/m2
16:16 4.3 °C -9.9 °C 1021.6 hPa WSW 6.4 km/h 8 km/h 35% 0 mm 531 W/m2
16:22 4.5 °C -10.8 °C 1021.6 hPa WSW 4.8 km/h 4.8 km/h 32% 0 mm 517 W/m2
16:28 4.5 °C -10.8 °C 1021.6 hPa WSW 4.8 km/h 4.8 km/h 32% 0 mm 499 W/m2
16:34 4.6 °C -10 °C 1021.6 hPa West 4.8 km/h 8 km/h 34% 0 mm 485 W/m2
16:40 4.5 °C -10.8 °C 1021.6 hPa NW 4.8 km/h 6.4 km/h 32% 0 mm 469 W/m2
16:46 4.4 °C -11.7 °C 1021.6 hPa NW 4.8 km/h 6.4 km/h 30% 0 mm 452 W/m2
16:52 4.7 °C -11.1 °C 1021.6 hPa NW 3.2 km/h 3.2 km/h 31% 0 mm 436 W/m2
16:58 4.9 °C -11.7 °C 1021.6 hPa WSW 1.6 km/h 4.8 km/h 29% 0 mm 418 W/m2
17:04 4.8 °C -12.2 °C 1021.6 hPa WNW 4.8 km/h 8 km/h 28% 0 mm 401 W/m2
17:10 4.6 °C -12.4 °C 1021.6 hPa WNW 4.8 km/h 4.8 km/h 28% 0 mm 387 W/m2
17:16 4.7 °C -12.3 °C 1021.6 hPa North 3.2 km/h 9.7 km/h 28% 0 mm 371 W/m2
17:22 4.5 °C -11.6 °C 1021.6 hPa WNW 4.8 km/h 4.8 km/h 30% 0 mm 327 W/m2
17:28 4.4 °C -12.1 °C 1021.6 hPa NNW 4.8 km/h 4.8 km/h 29% 0 mm 292 W/m2
17:34 4.2 °C -11.4 °C 1021.6 hPa NNW 3.2 km/h 8 km/h 31% 0 mm 290 W/m2
17:40 4.1 °C -12.4 °C 1021.6 hPa North 3.2 km/h 4.8 km/h 29% 0 mm 258 W/m2
17:46 4.1 °C -11.6 °C 1021.6 hPa North 3.2 km/h 6.4 km/h 31% 0 mm 244 W/m2
17:52 4.1 °C -12.4 °C 1021.6 hPa North 3.2 km/h 3.2 km/h 29% 0 mm 218 W/m2
17:58 4.1 °C -11.9 °C 1021.6 hPa WNW 1.6 km/h 4.8 km/h 30% 0 mm 199 W/m2
18:04 3.9 °C -13.4 °C 1021.6 hPa NNW 3.2 km/h 6.4 km/h 27% 0 mm 148 W/m2
18:10 3.7 °C -12.3 °C 1021.6 hPa NNW 3.2 km/h 6.4 km/h 30% 0 mm 107 W/m2
18:16 3.4 °C -12.6 °C 1021.6 hPa WNW 4.8 km/h 6.4 km/h 30% 0 mm 91 W/m2
18:22 3.2 °C -13.2 °C 1021.6 hPa NNW 3.2 km/h 6.4 km/h 29% 0 mm 56 W/m2
18:28 2.9 °C -12.9 °C 1021.6 hPa NNW 3.2 km/h 6.4 km/h 30% 0 mm 44 W/m2
18:34 2.7 °C -12.4 °C 1021.6 hPa NNW 1.6 km/h 3.2 km/h 32% 0 mm 30 W/m2
18:40 2.5 °C -12.9 °C 1021.6 hPa NNW 1.6 km/h 4.8 km/h 31% 0 mm 21 W/m2
18:46 2.3 °C -12.7 °C 1021.6 hPa North 3.2 km/h 4.8 km/h 32% 0 mm 18 W/m2
18:52 2.1 °C -12.9 °C 1021.6 hPa North 1.6 km/h 1.6 km/h 32% 0 mm 14 W/m2
18:58 1.9 °C -12.7 °C 1021.6 hPa North 1.6 km/h 1.6 km/h 33% 0 mm 11 W/m2
19:04 1.7 °C -12.5 °C 1021.6 hPa Calm   1.6 km/h 34% 0 mm 7 W/m2
19:10 1.4 °C -12.1 °C 1021.6 hPa Calm     36% 0 mm 0 W/m2
19:16 1.2 °C -12.3 °C 1021.6 hPa Calm     36% 0 mm 0 W/m2
19:22 0.9 °C -11.8 °C 1021.6 hPa Calm   4.8 km/h 38% 0 mm 0 W/m2
19:28 0.4 °C -11.7 °C 1021.6 hPa Calm   4.8 km/h 40% 0 mm 0 W/m2
19:34 0.3 °C -11.8 °C 1021.6 hPa Calm   4.8 km/h 40% 0 mm 0 W/m2
19:40 0.1 °C -10.7 °C 1021.6 hPa North 1.6 km/h 1.6 km/h 44% 0 mm 0 W/m2
19:46 -0.3 °C -10.6 °C 1021.6 hPa Calm   1.6 km/h 46% 0 mm 0 W/m2
19:52 -0.7 °C -9.9 °C 1021.6 hPa Calm     50% 0 mm 0 W/m2
19:58 -1.4 °C -9.3 °C 1021.6 hPa Calm     55% 0 mm 0 W/m2
20:04 -1.8 °C -10.8 °C 1021.6 hPa Calm     50% 0 mm 0 W/m2
20:10 -2.1 °C -10.8 °C 1021.6 hPa Calm     51% 0 mm 0 W/m2
20:16 -2.4 °C -11.2 °C 1021.9 hPa Calm     51% 0 mm 0 W/m2
20:22 -2.7 °C -11.4 °C 1021.9 hPa Calm     51% 0 mm 0 W/m2
20:28 -2.9 °C -11.2 °C 1021.9 hPa Calm     53% 0 mm 0 W/m2
20:34 -3.2 °C -11 °C 1021.9 hPa Calm     55% 0 mm 0 W/m2
20:40 -3.4 °C -11 °C 1021.9 hPa Calm     56% 0 mm 0 W/m2
20:46 -3.6 °C -10.5 °C 1021.9 hPa Calm     59% 0 mm 0 W/m2
20:52 -3.8 °C -10.3 °C 1021.9 hPa Calm     61% 0 mm 0 W/m2
20:58 -4.1 °C -10.3 °C 1021.9 hPa Calm     62% 0 mm 0 W/m2
21:04 -4.2 °C -10.2 °C 1021.9 hPa Calm     63% 0 mm 0 W/m2
21:10 -4.2 °C -10.4 °C 1021.9 hPa Calm     62% 0 mm 0 W/m2
21:16 -4.2 °C -10.2 °C 1021.9 hPa Calm     63% 0 mm 0 W/m2
21:22 -4.4 °C -10.4 °C 1021.6 hPa Calm     63% 0 mm 0 W/m2
21:28 -4.7 °C -10.7 °C 1021.6 hPa Calm     63% 0 mm 0 W/m2
21:34 -4.8 °C -11.2 °C 1021.9 hPa Calm     61% 0 mm 0 W/m2
21:40 -4.9 °C -11.1 °C 1021.9 hPa Calm     62% 0 mm 0 W/m2
21:46 -5.1 °C -10.9 °C 1021.9 hPa Calm     64% 0 mm 0 W/m2
21:52 -5.3 °C -10.8 °C 1021.9 hPa Calm     65% 0 mm 0 W/m2
21:58 -5.2 °C -10.8 °C 1021.6 hPa Calm     65% 0 mm 0 W/m2
22:04 -5.4 °C -11.3 °C 1021.6 hPa Calm     63% 0 mm 0 W/m2
22:10 -5.7 °C -11.7 °C 1021.6 hPa Calm     63% 0 mm 0 W/m2
22:16 -5.9 °C -11.7 °C 1021.6 hPa Calm     64% 0 mm 0 W/m2
22:22 -6 °C -11.7 °C 1021.9 hPa Calm     64% 0 mm 0 W/m2
22:28 -6.1 °C -11.4 °C 1021.9 hPa Calm     66% 0 mm 0 W/m2
22:34 -6.2 °C -11.6 °C 1021.9 hPa Calm     66% 0 mm 0 W/m2
22:40 -6.3 °C -11.6 °C 1021.9 hPa Calm     66% 0 mm 0 W/m2
22:46 -6.1 °C -11.2 °C 1021.9 hPa Calm     67% 0 mm 0 W/m2
22:52 -6.3 °C -11.4 °C 1021.9 hPa Calm     67% 0 mm 0 W/m2
22:58 -6.4 °C -11.6 °C 1021.6 hPa Calm     67% 0 mm 0 W/m2
23:04 -6.6 °C -11.7 °C 1021.6 hPa Calm     67% 0 mm 0 W/m2
23:12 -6.8 °C -11.8 °C 1021.9 hPa Calm     68% 0 mm 0 W/m2
23:18 -6.8 °C -11.7 °C 1021.6 hPa Calm     68% 0 mm 0 W/m2
23:24 -6.8 °C -11.9 °C 1021.6 hPa Calm     67% 0 mm 0 W/m2
23:30 -6.9 °C -11.9 °C 1021.6 hPa Calm     68% 0 mm 0 W/m2
23:36 -7.1 °C -11.8 °C 1021.6 hPa Calm     69% 0 mm 0 W/m2
23:42 -7.2 °C -11.9 °C 1021.9 hPa Calm     69% 0 mm 0 W/m2
23:48 -7.1 °C -11.8 °C 1021.6 hPa Calm     69% 0 mm 0 W/m2
23:54 -7.1 °C -12.2 °C 1021.6 hPa Calm     67% 0 mm 0 W/m2
Country Meadow, Clay, NY, USA
Compliments of Weather Underground - 2 mb